Arad, România

08:39 AM EEST on septembrie 05, 2015 (GMT +0300)
Arad | | Change Station
CLOSE
Current Station
Aeroport
Location: Arad,
Elevation: 351 ft
Nearby Weather Stations

Elev 351 ft 46.18 °N, 21.26 °E | Updated 9 minutes ago

Clear
Cer senin
68 °F
Feels Like 68 °F
N
5
Vânt variabil Vânt from est

astăzi
High -- | Low -- °F
--% Chance of Precip.
Ieri
High -- | Low -- °F
Precip. -- inch
6:59 AM 8:06 PM
Lună în descreştere, 52% visible
Presiunea 29.86 inch
Vizibilitatea -9999.0 mile
Nori
Punctul de rouă 66 °F
Umiditatea 94%
Precipitaţii 0.00 inch
Adâncimea zăpezii Not available.
UV Not available.
Pollen Not available.
Calitatea aerului Not available.
Flu Activity Not available.
METAR LRAR 050530Z 09004KT CAVOK 20/19 Q1011
Presiunea 29.86 inch
Vizibilitatea -9999.0 mile
Nori
Punctul de rouă 66 °F
Umiditatea 94%
Precipitaţii 0.00 inch
Adâncimea zăpezii Not available.
UV Not available.
Pollen Not available.
Calitatea aerului Not available.
Flu Activity Not available.
METAR LRAR 050530Z 09004KT CAVOK 20/19 Q1011

10-Day Weather Forecast

×

Almanac

Astronomie

Sep. 05, 2015 Răsărit Apus
Timpul Actual
Crepusculul Civil
Crepusculul nautic
Răsărit Astronomic
Luna
Durata zilei lumină
Lungimea zilei
Tomorrow will be .
, % of the Moon is Illuminated

Extremele de azi

Country Highs Country Lows

Community

WunderPhotos

Upload Photos

1,852,426 photos uploaded!

WunderBlogs® & News

Nearby

Calitatea aerului

  Calitatea aerului Index de calitate a aerului Poluat
Not available.

Adâncimea zapezii

Station Depth Elevation

Earthquake Activity

Oraş Distance Mag. Time & Date
Minimum magnitude displayed is 2.5.

Coastal Water Temperatures

Locul Temperatura

Stations

Nearby Weather Stations

Locaţia staţiei Temp Vânt rece Punctul de rouă Umiditatea Vânt Precip. Elev Actualizare Type